Time;durP1;ratioP1;P1;durP2;ratioP2;P2;SDS_P1;SDS_P2;PMS_P1;PMS_P2;Temp;Humidity;BMP_temperature;BMP_pressure;BME280_temperature;BME280_humidity;BME280_pressure;Samples;Min_cycle;Max_cycle;Signal;HPM_P1;HPM_P2
2021/11/11 00:01:11;;;;;;;;;;;;;;;12.29;50.77;102111.63;4146993;28;19996;-63
2021/11/11 00:03:13;;;;;;;;;;;;;;;12.27;50.74;102111.69;4147489;28;19975;-62
2021/11/11 00:05:15;;;;;;;;;;;;;;;12.27;50.94;102109.03;4147331;28;19929;-62
2021/11/11 00:07:17;;;;;;;;;;;;;;;12.26;51.02;102098.50;4145915;28;20332;-62
2021/11/11 00:09:19;;;;;;;;;;;;;;;12.25;50.67;102102.91;4147624;28;20366;-62
2021/11/11 00:11:21;;;;;;;;;;;;;;;12.24;51.00;102103.81;4147130;28;19925;-64
2021/11/11 00:13:23;;;;;;;;;;;;;;;12.24;50.75;102109.09;4148197;28;19968;-63
2021/11/11 00:15:26;;;;;;;;;;;;;;;12.24;50.68;102110.88;4149054;28;19979;-63
2021/11/11 00:17:28;;;;;;;;;;;;;;;12.23;50.84;102114.41;4147003;28;19921;-62
2021/11/11 00:19:30;;;;;;;;;;;;;;;12.22;50.72;102110.88;4147388;28;19925;-63
2021/11/11 00:21:32;;;;;;;;;;;;;;;12.22;51.05;102110.03;4146770;28;19925;-62
2021/11/11 00:23:34;;;;;;;;;;;;;;;12.20;50.58;102107.44;4148432;28;19921;-63
2021/11/11 00:25:37;;;;;;;;;;;;;;;12.20;50.51;102104.78;4146921;28;19922;-62
2021/11/11 00:27:39;;;;;;;;;;;;;;;12.20;50.75;102101.25;4149334;28;20401;-62
2021/11/11 00:29:41;;;;;;;;;;;;;;;12.19;51.08;102099.53;4147919;28;19952;-63
2021/11/11 00:31:43;;;;;;;;;;;;;;;12.18;51.09;102098.66;4147968;28;19926;-62
2021/11/11 00:33:45;;;;;;;;;;;;;;;12.17;50.82;102093.44;4136211;28;19924;-62
2021/11/11 00:35:47;;;;;;;;;;;;;;;12.16;50.81;102089.91;4147619;28;19921;-61
2021/11/11 00:37:50;;;;;;;;;;;;;;;12.18;50.89;102084.63;4150080;28;20399;-62
2021/11/11 00:39:52;;;;;;;;;;;;;;;12.16;50.90;102078.50;4146888;28;19921;-62
2021/11/11 00:41:54;;;;;;;;;;;;;;;12.15;50.89;102077.63;4146616;28;19921;-62
2021/11/11 00:43:56;;;;;;;;;;;;;;;12.14;50.66;102070.63;4147922;28;19922;-62
2021/11/11 00:45:59;;;;;;;;;;;;;;;12.13;51.04;102075.03;4148297;28;19921;-62
2021/11/11 00:48:01;;;;;;;;;;;;;;;12.13;50.86;102074.16;4146673;28;19925;-63
2021/11/11 00:50:06;;;;;;;;;;;;;;;12.12;50.92;102080.34;4147350;28;19975;-62
2021/11/11 00:52:09;;;;;;;;;;;;;;;12.11;50.77;102082.13;4150948;28;20113;-61
2021/11/11 00:54:11;;;;;;;;;;;;;;;12.11;50.65;102089.13;4147512;28;19932;-62
2021/11/11 00:56:13;;;;;;;;;;;;;;;12.10;50.66;102083.00;4149556;28;20328;-63
2021/11/11 00:58:15;;;;;;;;;;;;;;;12.09;50.71;102083.00;4151725;28;19921;-62
2021/11/11 01:00:18;;;;;;;;;;;;;;;12.09;50.70;102085.66;4146445;28;19921;-63
2021/11/11 01:02:20;;;;;;;;;;;;;;;12.07;50.60;102079.56;4146147;28;19921;-62
2021/11/11 01:04:23;;;;;;;;;;;;;;;12.07;50.60;102079.56;4146885;28;19925;-62
2021/11/11 01:06:26;;;;;;;;;;;;;;;12.07;50.73;102075.16;4146494;28;19921;-61
2021/11/11 01:08:28;;;;;;;;;;;;;;;12.06;50.44;102076.03;4147859;28;19925;-62
2021/11/11 01:10:30;;;;;;;;;;;;;;;12.06;50.85;102069.91;4149091;28;20197;-63
2021/11/11 01:12:33;;;;;;;;;;;;;;;12.05;50.74;102065.53;4148465;28;19926;-63
2021/11/11 01:14:35;;;;;;;;;;;;;;;12.04;50.68;102069.06;4146544;28;19921;-62
2021/11/11 01:16:37;;;;;;;;;;;;;;;12.03;50.56;102065.56;4146186;28;19983;-62
2021/11/11 01:18:40;;;;;;;;;;;;;;;12.04;50.98;102069.06;4148900;28;19972;-63
2021/11/11 01:20:42;;;;;;;;;;;;;;;12.03;50.57;102070.84;4147377;28;19922;-62
2021/11/11 01:22:45;;;;;;;;;;;;;;;12.02;50.71;102069.09;4146028;28;19929;-64
2021/11/11 01:24:47;;;;;;;;;;;;;;;12.02;50.64;102070.84;4148160;28;19928;-62
2021/11/11 01:26:49;;;;;;;;;;;;;;;12.01;50.65;102066.50;4132476;28;20282;-61
2021/11/11 01:28:51;;;;;;;;;;;;;;;12.00;50.84;102057.72;4136500;28;20340;-61
2021/11/11 01:30:53;;;;;;;;;;;;;;;11.99;50.67;102053.31;4145918;28;20292;-61
2021/11/11 01:32:55;;;;;;;;;;;;;;;12.00;50.71;102059.50;4146981;28;19928;-61
2021/11/11 01:34:57;;;;;;;;;;;;;;;11.98;50.64;102060.38;4149754;28;19924;-61
2021/11/11 01:36:59;;;;;;;;;;;;;;;11.97;50.58;102063.06;4154963;28;19917;-61
2021/11/11 01:39:03;;;;;;;;;;;;;;;11.98;50.93;102056.84;4158865;28;19921;-61
2021/11/11 01:41:05;;;;;;;;;;;;;;;11.97;50.57;102058.63;4146227;28;19926;-60
2021/11/11 01:43:08;;;;;;;;;;;;;;;11.95;50.56;102051.63;4147019;28;20409;-60
2021/11/11 01:45:10;;;;;;;;;;;;;;;11.97;50.37;102057.78;4146447;28;19925;-60
2021/11/11 01:47:12;;;;;;;;;;;;;;;11.94;50.48;102045.47;4146056;28;19925;-60
2021/11/11 01:49:14;;;;;;;;;;;;;;;11.94;50.69;102049.88;4146907;28;19918;-61
2021/11/11 01:51:16;;;;;;;;;;;;;;;11.93;50.54;102050.78;4147337;28;19917;-61
2021/11/11 01:53:18;;;;;;;;;;;;;;;11.93;50.30;102046.41;4146182;28;20392;-61
2021/11/11 01:55:21;;;;;;;;;;;;;;;11.92;50.43;102042.03;4145660;28;19921;-60
2021/11/11 01:57:25;;;;;;;;;;;;;;;11.91;50.49;102045.56;4145792;28;19926;-61
2021/11/11 01:59:27;;;;;;;;;;;;;;;11.92;50.85;102043.78;4146428;28;19922;-60
2021/11/11 02:01:29;;;;;;;;;;;;;;;11.91;50.47;102044.69;4148851;28;20563;-60
2021/11/11 02:03:33;;;;;;;;;;;;;;;11.90;50.73;102035.91;4146895;28;19921;-60
2021/11/11 02:05:35;;;;;;;;;;;;;;;11.90;50.48;102035.03;4147843;28;19925;-61
2021/11/11 02:07:37;;;;;;;;;;;;;;;11.88;50.45;102032.41;4145723;28;19966;-61
2021/11/11 02:09:39;;;;;;;;;;;;;;;11.88;50.41;102037.69;4146537;28;20309;-61
2021/11/11 02:11:43;;;;;;;;;;;;;;;11.87;50.64;102037.72;4145772;28;19930;-60
2021/11/11 02:13:44;;;;;;;;;;;;;;;11.86;50.71;102039.50;4147469;28;20372;-60
2021/11/11 02:15:46;;;;;;;;;;;;;;;11.86;50.66;102036.88;4148828;28;20098;-61
2021/11/11 02:17:50;;;;;;;;;;;;;;;11.86;50.44;102033.34;4146278;28;20405;-60
2021/11/11 02:19:59;;;;;;;;;;;;;;;11.85;50.45;102027.22;4146122;28;20417;-60
2021/11/11 02:22:04;;;;;;;;;;;;;;;11.86;50.37;102025.44;4143468;28;19975;-61
2021/11/11 02:24:06;;;;;;;;;;;;;;;11.84;50.63;102022.84;4147535;28;19925;-61
2021/11/11 02:26:08;;;;;;;;;;;;;;;11.82;50.47;102022.88;4145439;28;19982;-60
2021/11/11 02:28:11;;;;;;;;;;;;;;;11.82;50.48;102016.72;4146591;28;19948;-61
2021/11/11 02:30:15;;;;;;;;;;;;;;;11.81;50.70;102022.88;4148879;28;20007;-61
2021/11/11 02:32:19;;;;;;;;;;;;;;;11.81;50.67;102031.69;4140915;28;19975;-61
2021/11/11 02:34:23;;;;;;;;;;;;;;;11.80;50.43;102039.63;4129579;28;20329;-61
2021/11/11 02:36:25;;;;;;;;;;;;;;;11.79;50.50;102044.00;4139366;28;19921;-60
2021/11/11 02:38:27;;;;;;;;;;;;;;;11.79;50.29;102043.16;4158666;28;19929;-60
2021/11/11 02:40:29;;;;;;;;;;;;;;;11.78;50.45;102044.06;4162025;28;20003;-60
2021/11/11 02:42:31;;;;;;;;;;;;;;;11.78;50.59;102050.19;4149758;28;19972;-60
2021/11/11 02:44:33;;;;;;;;;;;;;;;11.78;50.63;102044.06;4147659;28;19917;-60
2021/11/11 02:46:35;;;;;;;;;;;;;;;11.77;50.49;102037.91;4147858;28;19940;-60
2021/11/11 02:48:37;;;;;;;;;;;;;;;11.76;50.50;102032.66;4148976;28;20027;-61
2021/11/11 02:50:40;;;;;;;;;;;;;;;11.76;50.39;102035.28;4146641;28;19927;-62
2021/11/11 02:52:43;;;;;;;;;;;;;;;11.75;50.56;102029.16;4149216;28;19921;-61
2021/11/11 02:54:45;;;;;;;;;;;;;;;11.74;50.33;102032.69;4132338;28;19925;-61
2021/11/11 02:56:47;;;;;;;;;;;;;;;11.74;50.18;102031.84;4139437;28;19925;-61
2021/11/11 02:58:49;;;;;;;;;;;;;;;11.73;50.50;102033.59;4150604;28;19921;-60
2021/11/11 03:01:00;;;;;;;;;;;;;;;11.73;50.61;102038.00;4150771;28;19922;-60
2021/11/11 03:03:02;;;;;;;;;;;;;;;11.73;50.37;102038.88;4151227;28;19921;-60
2021/11/11 03:05:05;;;;;;;;;;;;;;;11.72;50.53;102038.91;4148638;28;19929;-61
2021/11/11 03:07:07;;;;;;;;;;;;;;;11.71;50.46;102037.16;4149528;28;19929;-61
2021/11/11 03:09:09;;;;;;;;;;;;;;;11.71;50.44;102037.16;4149212;28;19917;-60
2021/11/11 03:11:10;;;;;;;;;;;;;;;11.71;50.35;102039.78;4148795;28;20412;-60
2021/11/11 03:13:15;;;;;;;;;;;;;;;11.70;50.28;102038.06;4150919;28;19917;-61
2021/11/11 03:15:17;;;;;;;;;;;;;;;11.70;50.27;102043.31;4148388;28;19921;-61
2021/11/11 03:17:19;;;;;;;;;;;;;;;11.68;50.31;102038.09;4149224;28;20336;-61
2021/11/11 03:19:21;;;;;;;;;;;;;;;11.67;50.32;102034.56;4148087;28;19944;-62
2021/11/11 03:21:23;;;;;;;;;;;;;;;11.66;50.58;102035.50;4149515;28;20418;-61
2021/11/11 03:23:25;;;;;;;;;;;;;;;11.66;50.32;102032.88;4148073;28;20336;-62
2021/11/11 03:25:28;;;;;;;;;;;;;;;11.66;50.52;102026.69;4149435;28;19971;-61
2021/11/11 03:27:31;;;;;;;;;;;;;;;11.65;50.44;102020.56;4147987;28;20310;-61
2021/11/11 03:29:33;;;;;;;;;;;;;;;11.64;50.53;102024.09;4148187;28;20374;-62
2021/11/11 03:31:35;;;;;;;;;;;;;;;11.64;50.34;102023.22;4149515;28;20396;-61
2021/11/11 03:33:37;;;;;;;;;;;;;;;11.63;50.57;102032.91;4148005;28;20392;-61
2021/11/11 03:35:39;;;;;;;;;;;;;;;11.63;50.33;102032.03;4148891;28;20516;-61
2021/11/11 03:37:42;;;;;;;;;;;;;;;11.63;50.29;102046.09;4153840;28;19933;-62
2021/11/11 03:39:44;;;;;;;;;;;;;;;11.61;50.32;102045.22;4149745;28;19925;-62
2021/11/11 03:41:47;;;;;;;;;;;;;;;11.61;50.56;102041.75;4150169;28;19921;-61
2021/11/11 03:43:49;;;;;;;;;;;;;;;11.60;50.51;102043.47;4150741;28;19917;-61
2021/11/11 03:45:51;;;;;;;;;;;;;;;11.60;50.27;102045.25;4149840;28;19921;-61
2021/11/11 03:47:53;;;;;;;;;;;;;;;11.59;50.18;102046.16;4147775;28;19922;-61
2021/11/11 03:49:56;;;;;;;;;;;;;;;11.59;50.18;102047.03;4147540;28;19945;-61
2021/11/11 03:51:58;;;;;;;;;;;;;;;11.58;50.22;102049.69;4147857;28;19983;-61
2021/11/11 03:54:01;;;;;;;;;;;;;;;11.57;50.61;102040.94;4147758;28;19929;-60
2021/11/11 03:56:03;;;;;;;;;;;;;;;11.57;50.30;102042.69;4150532;28;20370;-61
2021/11/11 03:58:06;;;;;;;;;;;;;;;11.57;50.23;102046.19;4147857;28;19983;-61
2021/11/11 04:00:09;;;;;;;;;;;;;;;11.56;50.18;102039.19;4148171;28;19964;-61
2021/11/11 04:02:14;;;;;;;;;;;;;;;11.56;50.31;102040.97;4148048;28;19922;-61
2021/11/11 04:04:16;;;;;;;;;;;;;;;11.56;50.34;102046.22;4147547;28;19921;-61
2021/11/11 04:06:18;;;;;;;;;;;;;;;11.54;50.12;102045.38;4147388;28;19972;-60
2021/11/11 04:08:20;;;;;;;;;;;;;;;11.54;50.32;102046.25;4149682;28;19924;-60
2021/11/11 04:10:22;;;;;;;;;;;;;;;11.52;50.24;102042.78;4147811;28;19925;-60
2021/11/11 04:12:32;;;;;;;;;;;;;;;11.51;49.94;102041.91;4147835;28;19922;-61
2021/11/11 04:14:34;;;;;;;;;;;;;;;11.51;50.17;102047.16;4147310;28;19930;-61
2021/11/11 04:16:36;;;;;;;;;;;;;;;11.50;50.33;102057.75;4147658;28;19921;-61
2021/11/11 04:18:38;;;;;;;;;;;;;;;11.49;50.38;102059.53;4147213;28;19975;-61
2021/11/11 04:20:40;;;;;;;;;;;;;;;11.48;50.14;102055.16;4150095;28;20324;-60
2021/11/11 04:22:42;;;;;;;;;;;;;;;11.49;50.06;102067.41;4130888;28;19925;-62
2021/11/11 04:24:46;;;;;;;;;;;;;;;11.48;50.45;102064.78;4139438;28;20365;-62
2021/11/11 04:29:05;;;;;;;;;;;;;;;11.47;50.30;102081.50;4147059;28;19921;-60
2021/11/11 04:31:14;;;;;;;;;;;;;;;11.47;50.10;102076.22;4146081;28;19932;-61
2021/11/11 04:33:17;;;;;;;;;;;;;;;11.47;49.99;102084.13;4148022;28;19921;-61
2021/11/11 04:35:19;;;;;;;;;;;;;;;11.46;50.08;102087.69;4147634;28;19921;-61
2021/11/11 04:42:04;;;;;;;;;;;;;;;11.43;50.06;102085.94;4146931;28;19921;-61
2021/11/11 04:44:21;;;;;;;;;;;;;;;11.43;49.98;102104.38;4147607;28;19928;-60
2021/11/11 05:04:07;;;;;;;;;;;;;;;11.37;49.94;102079.94;4133092;28;19921;-61
2021/11/11 05:06:10;;;;;;;;;;;;;;;11.35;49.86;102088.72;4140168;28;19917;-60
2021/11/11 05:08:12;;;;;;;;;;;;;;;11.34;50.07;102081.72;4146699;28;20332;-60
2021/11/11 05:10:15;;;;;;;;;;;;;;;11.34;50.02;102096.66;4146611;28;19987;-60
2021/11/11 05:12:18;;;;;;;;;;;;;;;11.34;49.94;102096.66;4146504;28;20403;-60
2021/11/11 05:14:20;;;;;;;;;;;;;;;11.34;49.77;102097.50;4145984;28;19921;-61
2021/11/11 05:16:22;;;;;;;;;;;;;;;11.33;49.94;102101.03;4146134;28;19921;-61
2021/11/11 05:18:24;;;;;;;;;;;;;;;11.33;49.89;102097.53;4146592;28;19917;-61
2021/11/11 05:20:26;;;;;;;;;;;;;;;11.32;49.79;102098.44;4146882;28;19921;-60
2021/11/11 05:22:28;;;;;;;;;;;;;;;11.32;49.82;102101.06;4146884;28;20325;-60
2021/11/11 05:24:31;;;;;;;;;;;;;;;11.30;49.56;102098.47;4146622;28;19921;-60
2021/11/11 05:26:33;;;;;;;;;;;;;;;11.30;50.13;102092.31;4146128;28;19922;-61
2021/11/11 05:28:36;;;;;;;;;;;;;;;11.30;49.84;102095.84;4135352;28;19925;-61
2021/11/11 05:30:38;;;;;;;;;;;;;;;11.30;49.93;102100.22;4147123;28;20332;-60
2021/11/11 05:32:40;;;;;;;;;;;;;;;11.28;49.91;102094.13;4151112;28;20109;-61
2021/11/11 05:34:42;;;;;;;;;;;;;;;11.28;49.85;102097.63;4146912;28;19968;-61
2021/11/11 05:36:44;;;;;;;;;;;;;;;11.27;49.97;102100.28;4148316;28;19921;-60
2021/11/11 05:38:45;;;;;;;;;;;;;;;11.27;49.83;102110.81;4146291;28;19999;-60
2021/11/11 05:40:47;;;;;;;;;;;;;;;11.26;49.72;102103.81;4146669;28;20434;-62
2021/11/11 05:42:49;;;;;;;;;;;;;;;11.25;49.67;102107.31;4148463;28;20381;-61
2021/11/11 05:44:51;;;;;;;;;;;;;;;11.25;49.88;102108.22;4148736;28;20305;-61
2021/11/11 05:46:54;;;;;;;;;;;;;;;11.24;49.59;102105.59;4148636;28;20525;-61
2021/11/11 05:48:56;;;;;;;;;;;;;;;11.23;49.60;102110.00;4147843;28;19992;-60
2021/11/11 05:50:58;;;;;;;;;;;;;;;11.23;49.83;102111.75;4147482;28;19929;-61
2021/11/11 05:53:00;;;;;;;;;;;;;;;11.22;49.76;102116.16;4147523;28;19925;-62
2021/11/11 05:55:03;;;;;;;;;;;;;;;11.22;49.60;102117.94;4146217;28;20295;-64
2021/11/11 05:57:06;;;;;;;;;;;;;;;11.21;49.60;102127.56;4145861;28;19979;-61
2021/11/11 05:59:09;;;;;;;;;;;;;;;11.20;49.80;102136.38;4148284;28;19917;-61
2021/11/11 06:01:11;;;;;;;;;;;;;;;11.21;49.75;102137.25;4145951;28;19925;-61
2021/11/11 06:03:14;;;;;;;;;;;;;;;11.19;49.77;102140.78;4145579;28;19932;-60
2021/11/11 06:05:18;;;;;;;;;;;;;;;11.19;49.62;102143.41;4146135;28;19922;-61
2021/11/11 06:07:20;;;;;;;;;;;;;;;11.19;49.60;102137.25;4145915;28;19922;-61
2021/11/11 06:09:22;;;;;;;;;;;;;;;11.17;49.46;102139.91;4141547;28;19976;-61
2021/11/11 06:11:24;;;;;;;;;;;;;;;11.16;49.70;102151.34;4143294;28;19921;-61
2021/11/11 06:13:27;;;;;;;;;;;;;;;11.16;49.55;102158.38;4145872;28;19929;-61
2021/11/11 06:15:29;;;;;;;;;;;;;;;11.16;49.62;102161.88;4146942;28;19918;-61
2021/11/11 06:17:31;;;;;;;;;;;;;;;11.15;49.51;102167.16;4145909;28;19922;-60
2021/11/11 06:19:34;;;;;;;;;;;;;;;11.14;49.64;102165.44;4146259;28;19921;-61
2021/11/11 06:21:37;;;;;;;;;;;;;;;11.14;49.65;102168.06;4146001;28;19929;-60
2021/11/11 06:23:39;;;;;;;;;;;;;;;11.13;49.67;102172.47;4146003;28;19928;-61
2021/11/11 06:25:41;;;;;;;;;;;;;;;11.13;49.56;102185.63;4145812;28;20478;-61
2021/11/11 06:27:43;;;;;;;;;;;;;;;11.13;49.74;102190.00;4149141;28;19928;-61
2021/11/11 06:29:45;;;;;;;;;;;;;;;11.11;49.60;102190.03;4149034;28;20345;-61
2021/11/11 06:31:47;;;;;;;;;;;;;;;11.11;49.51;102194.44;4150041;28;19926;-62
2021/11/11 06:33:53;;;;;;;;;;;;;;;11.11;49.44;102197.94;4148701;28;19921;-61
2021/11/11 06:35:55;;;;;;;;;;;;;;;11.10;49.59;102205.88;4148981;28;19948;-61
2021/11/11 06:37:58;;;;;;;;;;;;;;;11.10;49.38;102208.50;4161157;28;19975;-61
2021/11/11 06:40:00;;;;;;;;;;;;;;;11.09;49.65;102201.50;4150909;28;19933;-61
2021/11/11 06:42:02;;;;;;;;;;;;;;;11.09;49.39;102209.38;4149489;28;19921;-61
2021/11/11 06:44:04;;;;;;;;;;;;;;;11.08;49.41;102216.44;4150440;28;19929;-61
2021/11/11 06:46:07;;;;;;;;;;;;;;;11.08;49.52;102220.81;4148885;28;19976;-61
2021/11/11 06:48:13;;;;;;;;;;;;;;;11.07;49.33;102216.44;4148984;28;20312;-61
2021/11/11 06:50:15;;;;;;;;;;;;;;;10.95;49.59;102202.53;4149600;28;19921;-60
2021/11/11 06:52:17;;;;;;;;;;;;;;;11.07;49.62;102229.59;4148602;28;19928;-61
2021/11/11 06:54:19;;;;;;;;;;;;;;;11.06;49.54;102230.47;4148711;28;20435;-61
2021/11/11 06:56:22;;;;;;;;;;;;;;;11.05;49.42;102220.88;4148998;28;19944;-61
2021/11/11 06:58:24;;;;;;;;;;;;;;;11.05;49.55;102237.53;4148889;28;19925;-61
2021/11/11 07:00:26;;;;;;;;;;;;;;;11.04;48.92;102227.88;4148679;28;19926;-61
2021/11/11 07:02:29;;;;;;;;;;;;;;;11.04;49.46;102238.41;4148537;28;19925;-61
2021/11/11 07:04:31;;;;;;;;;;;;;;;11.05;49.50;102239.28;4148471;28;20011;-60
2021/11/11 07:06:33;;;;;;;;;;;;;;;11.02;49.50;102238.44;4150742;28;19922;-60
2021/11/11 07:08:35;;;;;;;;;;;;;;;11.02;49.43;102248.97;4148711;28;20417;-61
2021/11/11 07:10:37;;;;;;;;;;;;;;;11.02;49.52;102243.69;4148773;28;20392;-61
2021/11/11 07:12:39;;;;;;;;;;;;;;;11.01;49.33;102246.34;4148804;28;19921;-61
2021/11/11 07:14:43;;;;;;;;;;;;;;;11.02;49.45;102245.44;4147432;28;19967;-61
2021/11/11 07:16:46;;;;;;;;;;;;;;;11.01;49.55;102251.63;4148898;28;19921;-61
2021/11/11 07:18:47;;;;;;;;;;;;;;;11.01;49.39;102243.72;4148217;28;19989;-61
2021/11/11 07:20:51;;;;;;;;;;;;;;;11.00;49.45;102245.47;4149170;28;19921;-61
2021/11/11 07:22:58;;;;;;;;;;;;;;;11.00;49.33;102240.19;4151808;28;19921;-61
2021/11/11 07:25:00;;;;;;;;;;;;;;;10.99;49.25;102249.00;4148116;28;19928;-61
2021/11/11 07:27:02;;;;;;;;;;;;;;;10.99;49.24;102254.25;4148546;28;20094;-60
2021/11/11 07:29:04;;;;;;;;;;;;;;;11.00;49.43;102244.63;4148129;28;19921;-61
2021/11/11 07:31:06;;;;;;;;;;;;;;;10.99;49.47;102234.97;4147952;28;20303;-61
2021/11/11 07:33:08;;;;;;;;;;;;;;;10.98;49.54;102234.09;4149627;28;20305;-61
2021/11/11 07:35:10;;;;;;;;;;;;;;;10.98;49.40;102239.34;4151883;28;20256;-61
2021/11/11 07:37:12;;;;;;;;;;;;;;;10.98;49.27;102243.75;4153894;28;19968;-61
2021/11/11 07:39:15;;;;;;;;;;;;;;;10.98;49.31;102246.38;4164139;28;19925;-61
2021/11/11 07:41:17;;;;;;;;;;;;;;;10.98;49.24;102243.75;4159788;28;20295;-61
2021/11/11 07:43:19;;;;;;;;;;;;;;;10.97;49.35;102239.38;4149789;28;19921;-62
2021/11/11 07:45:25;;;;;;;;;;;;;;;10.97;49.40;102245.53;4149398;28;19921;-61
2021/11/11 07:47:29;;;;;;;;;;;;;;;10.96;49.54;102238.50;4150060;28;19922;-61
2021/11/11 07:49:31;;;;;;;;;;;;;;;10.96;49.43;102238.50;4148236;28;20412;-60
2021/11/11 07:51:33;;;;;;;;;;;;;;;10.96;49.19;102243.78;4147698;28;19921;-61
2021/11/11 07:53:35;;;;;;;;;;;;;;;10.96;49.34;102237.63;4148156;28;20368;-61
2021/11/11 07:55:39;;;;;;;;;;;;;;;10.96;49.19;102241.16;4148045;28;19925;-61
2021/11/11 07:57:42;;;;;;;;;;;;;;;10.80;49.38;102223.78;4148319;28;19928;-61
2021/11/11 07:59:44;;;;;;;;;;;;;;;10.96;49.59;102246.41;4150612;28;19972;-61
2021/11/11 08:01:46;;;;;;;;;;;;;;;10.82;49.28;102220.25;4148850;28;19975;-61
2021/11/11 08:03:49;;;;;;;;;;;;;;;10.95;49.37;102236.78;4148178;28;19921;-62
2021/11/11 08:05:51;;;;;;;;;;;;;;;10.96;49.30;102229.72;4147805;28;20313;-61
2021/11/11 08:07:53;;;;;;;;;;;;;;;10.95;49.47;102233.28;4147656;28;19921;-60
2021/11/11 08:09:55;;;;;;;;;;;;;;;10.95;49.43;102230.66;4151010;28;19996;-61
2021/11/11 08:11:57;;;;;;;;;;;;;;;10.94;49.50;102227.13;4149878;28;19997;-61
2021/11/11 08:14:03;;;;;;;;;;;;;;;10.95;49.44;102225.38;4151035;28;20064;-61
2021/11/11 08:16:05;;;;;;;;;;;;;;;10.95;49.26;102222.75;4149111;28;19936;-62
2021/11/11 08:18:07;;;;;;;;;;;;;;;10.95;49.18;102222.75;4148517;28;19925;-60
2021/11/11 08:20:10;;;;;;;;;;;;;;;10.94;49.49;102219.22;4147170;28;19968;-61
2021/11/11 08:22:12;;;;;;;;;;;;;;;10.94;49.45;102221.88;4148770;28;19967;-61
2021/11/11 08:24:14;;;;;;;;;;;;;;;10.94;49.46;102215.75;4149070;28;19956;-61
2021/11/11 08:26:16;;;;;;;;;;;;;;;10.94;49.20;102216.59;4147396;28;19932;-61
2021/11/11 08:28:18;;;;;;;;;;;;;;;10.94;49.28;102219.22;4148975;28;19968;-61
2021/11/11 08:30:21;;;;;;;;;;;;;;;10.94;49.29;102219.22;4149043;28;19929;-60
2021/11/11 08:32:23;;;;;;;;;;;;;;;10.93;49.43;102220.13;4147118;28;19929;-61
2021/11/11 08:34:25;;;;;;;;;;;;;;;10.94;49.64;102218.38;4147057;28;19949;-61
2021/11/11 08:36:28;;;;;;;;;;;;;;;10.93;49.80;102219.25;4147245;28;20016;-60
2021/11/11 08:38:30;;;;;;;;;;;;;;;10.93;49.50;102208.72;4152616;28;19917;-61
2021/11/11 08:40:32;;;;;;;;;;;;;;;10.93;50.02;102206.94;4148213;28;19929;-61
2021/11/11 08:42:34;;;;;;;;;;;;;;;10.93;50.03;102200.84;4147279;28;20366;-61
2021/11/11 08:44:37;;;;;;;;;;;;;;;10.92;49.95;102197.31;4147543;28;20309;-61
2021/11/11 08:46:43;;;;;;;;;;;;;;;10.94;49.88;102198.16;4148310;28;20409;-61
2021/11/11 08:48:46;;;;;;;;;;;;;;;10.93;49.66;102201.69;4152319;28;20621;-61
2021/11/11 08:50:48;;;;;;;;;;;;;;;10.94;49.56;102205.22;4147639;28;19941;-61
2021/11/11 08:52:54;;;;;;;;;;;;;;;10.93;49.76;102204.31;4148652;28;20503;-61
2021/11/11 08:54:56;;;;;;;;;;;;;;;10.93;49.82;102188.53;4146845;28;19921;-61
2021/11/11 08:56:58;;;;;;;;;;;;;;;10.94;49.97;102192.03;4148187;28;19936;-61
2021/11/11 08:59:01;;;;;;;;;;;;;;;10.94;49.59;102192.91;4146875;28;19921;-61
2021/11/11 09:01:05;;;;;;;;;;;;;;;10.93;49.85;102183.25;4147467;28;20011;-61
2021/11/11 09:03:08;;;;;;;;;;;;;;;10.94;49.73;102181.53;4146659;28;19925;-61
2021/11/11 09:05:10;;;;;;;;;;;;;;;10.94;50.04;102168.34;4147014;28;20400;-61
2021/11/11 09:07:12;;;;;;;;;;;;;;;10.94;49.82;102179.75;4147912;28;19921;-61
2021/11/11 09:09:14;;;;;;;;;;;;;;;10.94;49.94;102168.34;4146358;28;19944;-61
2021/11/11 09:11:17;;;;;;;;;;;;;;;10.95;49.84;102175.38;4148002;28;19917;-60
2021/11/11 09:13:19;;;;;;;;;;;;;;;10.95;50.15;102178.84;4148101;28;19958;-62
2021/11/11 09:15:23;;;;;;;;;;;;;;;10.96;50.00;102183.22;4146589;28;19925;-62
2021/11/11 09:17:24;;;;;;;;;;;;;;;10.97;50.00;102184.09;4150255;28;19921;-62
2021/11/11 09:19:26;;;;;;;;;;;;;;;10.97;49.68;102177.09;4146930;28;19929;-63
2021/11/11 09:21:29;;;;;;;;;;;;;;;10.97;49.91;102170.94;4149238;28;19921;-61
2021/11/11 09:23:31;;;;;;;;;;;;;;;10.97;49.80;102173.56;4146198;28;19926;-62
2021/11/11 09:25:33;;;;;;;;;;;;;;;10.97;49.84;102174.44;4145990;28;19921;-61
2021/11/11 09:27:36;;;;;;;;;;;;;;;10.97;49.84;102169.19;4146758;28;19987;-62
2021/11/11 09:29:38;;;;;;;;;;;;;;;10.97;49.76;102171.81;4148753;28;19929;-61
2021/11/11 09:31:40;;;;;;;;;;;;;;;10.97;49.87;102171.81;4135648;28;19980;-61
2021/11/11 09:33:43;;;;;;;;;;;;;;;10.99;49.91;102171.78;4146339;28;19921;-61
2021/11/11 09:35:45;;;;;;;;;;;;;;;10.98;49.75;102178.78;4146342;28;19933;-61
2021/11/11 09:37:48;;;;;;;;;;;;;;;10.98;49.75;102178.78;4157892;28;19929;-61
2021/11/11 09:39:50;;;;;;;;;;;;;;;10.98;49.79;102173.53;4175539;28;19971;-61
2021/11/11 09:41:56;;;;;;;;;;;;;;;10.99;49.89;102171.78;4148135;28;20142;-60
2021/11/11 09:43:58;;;;;;;;;;;;;;;10.99;49.86;102174.41;4145868;28;20346;-61
2021/11/11 09:46:00;;;;;;;;;;;;;;;10.99;49.63;102184.94;4146008;28;19928;-61
2021/11/11 09:48:02;;;;;;;;;;;;;;;10.98;50.07;102184.06;4147912;28;20202;-61
2021/11/11 09:50:06;;;;;;;;;;;;;;;10.98;49.90;102186.69;4146309;28;19930;-61
2021/11/11 09:52:08;;;;;;;;;;;;;;;10.99;49.83;102179.69;4147576;28;19926;-60
2021/11/11 09:58:43;;;;;;;;;;;;;;;10.99;49.99;102185.81;4146281;28;19921;-61
2021/11/11 10:00:46;;;;;;;;;;;;;;;11.00;49.53;102187.56;4146411;28;19925;-61
2021/11/11 10:02:48;;;;;;;;;;;;;;;11.01;49.80;102191.06;4146432;28;19925;-61
2021/11/11 10:04:50;;;;;;;;;;;;;;;11.00;49.73;102187.56;4147374;28;19968;-60
2021/11/11 10:06:53;;;;;;;;;;;;;;;11.01;49.64;102186.66;4146874;28;19921;-61
2021/11/11 10:08:56;;;;;;;;;;;;;;;11.01;49.61;102185.81;4146605;28;19967;-61
2021/11/11 10:10:58;;;;;;;;;;;;;;;11.02;49.50;102184.91;4146927;28;19921;-61
2021/11/11 10:13:16;;;;;;;;;;;;;;;11.02;49.86;102180.50;4146426;28;19983;-61
2021/11/11 10:15:19;;;;;;;;;;;;;;;10.91;49.75;102160.50;4146722;28;19926;-61
2021/11/11 10:17:23;;;;;;;;;;;;;;;11.03;49.72;102179.63;4149483;28;19921;-62
2021/11/11 10:19:25;;;;;;;;;;;;;;;11.04;49.74;102183.13;4149785;28;19921;-62
2021/11/11 10:21:51;;;;;;;;;;;;;;;11.05;49.58;102179.59;4150871;28;19929;-62
2021/11/11 10:23:54;;;;;;;;;;;;;;;11.05;49.81;102174.34;4148574;28;19979;-61
2021/11/11 10:26:17;;;;;;;;;;;;;;;11.04;49.78;102162.06;4145698;28;19928;-61
2021/11/11 10:28:19;;;;;;;;;;;;;;;11.06;49.60;102156.75;4147038;28;19926;-61
2021/11/11 10:30:21;;;;;;;;;;;;;;;11.07;49.58;102158.50;4147451;28;20377;-62
2021/11/11 10:32:26;;;;;;;;;;;;;;;11.06;49.79;102148.84;4149925;28;20001;-61
2021/11/11 10:34:28;;;;;;;;;;;;;;;11.07;49.56;102146.22;4150219;28;19929;-61
2021/11/11 10:36:56;;;;;;;;;;;;;;;11.07;49.76;102137.44;4145699;28;19922;-62
2021/11/11 10:39:09;;;;;;;;;;;;;;;11.08;49.78;102136.56;4158679;28;19971;-61
2021/11/11 10:41:12;;;;;;;;;;;;;;;11.08;49.76;102136.56;4145886;28;19925;-61
2021/11/11 10:43:21;;;;;;;;;;;;;;;11.08;49.60;102134.81;4148916;28;19921;-61
2021/11/11 10:45:25;;;;;;;;;;;;;;;11.07;49.91;102130.44;4145666;28;19925;-62
2021/11/11 10:47:32;;;;;;;;;;;;;;;11.08;49.75;102141.81;4145955;28;19932;-61
2021/11/11 10:49:34;;;;;;;;;;;;;;;11.09;49.98;102146.19;4145830;28;19921;-60
2021/11/11 10:51:37;;;;;;;;;;;;;;;11.09;49.99;102152.31;4145969;28;19968;-60
2021/11/11 10:53:39;;;;;;;;;;;;;;;11.10;50.21;102153.22;4148959;28;19989;-61
2021/11/11 10:55:43;;;;;;;;;;;;;;;11.09;50.16;102144.41;4149532;28;19960;-61
2021/11/11 10:57:47;;;;;;;;;;;;;;;11.10;50.01;102150.56;4146063;28;19925;-62
2021/11/11 11:00:07;;;;;;;;;;;;;;;11.10;50.05;102154.06;4146492;28;20456;-60